五感でエンジョイ!!

LUXURY FLIGHT

03-6423-7371

羽田本店:東京都大田区羽田5-11-1
営業時間:10:00~20:00
定休日:毎週 月曜日
セントレア店:愛知県常滑市セントレア1-1
営業時間:10:00~20:00 年中無休

lv

五感でエンジョイ!!

STAFF BLOG

2019/10/09 五感でエンジョイ!!

おはようぎゃんす~~~

 

今朝のセントレアは、

RJGG 090030Z 32019KT 9999 FEW030 21/08 Q1016 NOSIG

 

少し風がありますが、カラッとした秋晴れです

 

 

本日は、先日、広島よりお越しいただいたYさま!

 

エアラインの実運航を疑似体験して、オートパイロットの働きも詳しく知りたい!

ということで、記念すべき初フライトは、
実際に路線のある、羽田出発・中部到着で決まりっ!!

 

 

フライトを開始すると、、、

 

はぁ

 

ひぃ〜~~

 

ふぅー。

 

へぇ〜

 

ほぉ~~~

 

 

エンジンスタートから中部到着まで1つ1つの行程の理由をお伝えするたびに、
驚愕・感嘆・納得・緊張・安堵の声が漏れて、いや、コクピットの外まで響き渡って参ります

 

憧れの旅客機のコクピットに座り、
五感をフルに使って、感情豊かにフライトを楽しまれていたご様子でした!

 

エアラインパイロットが、自分たちを取り巻く刻一刻と変わり行く環境に対して、
どのように考え、なにを根拠に判断し、数ある選択の中から、限られた時間内で決断をしていくのか。。。

 

体験中、新たに芽生えた疑問にも、お答えさせていただいて、
「まだまだ、もっともっと知りたい!」というところで、体験終了となりました!

 

y%e3%81%95%e3%81%be

 

次回は、また違う路線の異なるシチュエーションで、
疑似空間とはなりますが、エアライン運航の深みを全身でハマって、味わって参りましょう!

 

Y機長オリジナルの素敵なフライトをつくって頂けるよう、弊社スタッフ一同、全力でサポートをさせて頂きます!

 

遠方からお越しいただき、本当にありがとうございました!

 
またのご来店を、スタッフ一同、心よりお待ち致しております!

 

 

 

「感謝」

TOP